Terminal Aerodrome Forecast
Issued by NWS

Home | Current Version | Previous Version | Text Only | Print | Product List | Glossary On
Versions: 1 2 3 4 5 6 7 8 9 10 11 12 13 14 15 16 17 18 19 20 21 22 23 24 25 26 27 28 29 30 31 32 33
537
FTUS43 KDVN 182329
TAFBRL
TAF
KBRL 182329Z 1900/1924 VRB03KT P6SM FEW070 OVC100
      TEMPO 1900/1903 2SM -RA BR BKN012 OVC035
     FM190500 17003KT 6SM BR VCSH OVC035
     FM190900 18003KT 4SM BR OVC012
     FM191500 18006KT 6SM BR SCT010=

USA.gov is the U.S. government's official web portal to all federal, state and local government web resources and services.